sensor_id;sensor_type;location;lat;lon;timestamp;temperature;humidity
2054;DHT22;1032;52.542;13.440;2023-07-31T00:01:35;18.50;99.90
2054;DHT22;1032;52.542;13.440;2023-07-31T00:04:02;18.60;99.90
2054;DHT22;1032;52.542;13.440;2023-07-31T00:06:29;18.50;99.90
2054;DHT22;1032;52.542;13.440;2023-07-31T00:08:55;18.40;99.90
2054;DHT22;1032;52.542;13.440;2023-07-31T00:11:23;18.50;99.90
2054;DHT22;1032;52.542;13.440;2023-07-31T00:13:50;18.40;99.90
2054;DHT22;1032;52.542;13.440;2023-07-31T00:16:16;18.40;99.90
2054;DHT22;1032;52.542;13.440;2023-07-31T00:18:43;18.20;99.90
2054;DHT22;1032;52.542;13.440;2023-07-31T00:21:10;18.30;99.90
2054;DHT22;1032;52.542;13.440;2023-07-31T00:23:36;18.20;99.90
2054;DHT22;1032;52.542;13.440;2023-07-31T00:26:03;18.30;99.90
2054;DHT22;1032;52.542;13.440;2023-07-31T00:28:31;18.20;99.90
2054;DHT22;1032;52.542;13.440;2023-07-31T00:30:57;18.10;99.90
2054;DHT22;1032;52.542;13.440;2023-07-31T00:33:25;18.20;99.90
2054;DHT22;1032;52.542;13.440;2023-07-31T00:35:52;18.30;99.90
2054;DHT22;1032;52.542;13.440;2023-07-31T00:38:18;18.30;99.90
2054;DHT22;1032;52.542;13.440;2023-07-31T00:40:45;18.20;99.90
2054;DHT22;1032;52.542;13.440;2023-07-31T00:43:12;18.60;99.90
2054;DHT22;1032;52.542;13.440;2023-07-31T00:45:41;18.20;99.90
2054;DHT22;1032;52.542;13.440;2023-07-31T00:48:08;18.00;99.90
2054;DHT22;1032;52.542;13.440;2023-07-31T00:50:35;18.20;99.90
2054;DHT22;1032;52.542;13.440;2023-07-31T00:53:02;18.00;99.90
2054;DHT22;1032;52.542;13.440;2023-07-31T00:55:29;18.30;99.90
2054;DHT22;1032;52.542;13.440;2023-07-31T00:57:56;18.30;99.90
2054;DHT22;1032;52.542;13.440;2023-07-31T01:00:23;18.20;99.90
2054;DHT22;1032;52.542;13.440;2023-07-31T01:02:51;18.50;99.90
2054;DHT22;1032;52.542;13.440;2023-07-31T01:05:22;18.20;99.90
2054;DHT22;1032;52.542;13.440;2023-07-31T01:07:54;18.20;99.90
2054;DHT22;1032;52.542;13.440;2023-07-31T01:10:27;18.20;99.90
2054;DHT22;1032;52.542;13.440;2023-07-31T01:12:57;18.30;99.90
2054;DHT22;1032;52.542;13.440;2023-07-31T01:15:24;18.30;99.90
2054;DHT22;1032;52.542;13.440;2023-07-31T01:17:51;18.30;99.90
2054;DHT22;1032;52.542;13.440;2023-07-31T01:20:21;18.50;99.90
2054;DHT22;1032;52.542;13.440;2023-07-31T01:23:06;18.30;99.90
2054;DHT22;1032;52.542;13.440;2023-07-31T01:26:05;18.20;99.90
2054;DHT22;1032;52.542;13.440;2023-07-31T01:28:43;18.30;99.90
2054;DHT22;1032;52.542;13.440;2023-07-31T01:31:14;18.30;99.90
2054;DHT22;1032;52.542;13.440;2023-07-31T01:33:42;18.10;99.90
2054;DHT22;1032;52.542;13.440;2023-07-31T01:36:09;18.30;99.90
2054;DHT22;1032;52.542;13.440;2023-07-31T01:38:57;18.30;99.90
2054;DHT22;1032;52.542;13.440;2023-07-31T01:41:28;18.30;99.90
2054;DHT22;1032;52.542;13.440;2023-07-31T01:43:55;18.30;99.90
2054;DHT22;1032;52.542;13.440;2023-07-31T01:46:23;18.30;99.90
2054;DHT22;1032;52.542;13.440;2023-07-31T01:48:50;18.30;99.90
2054;DHT22;1032;52.542;13.440;2023-07-31T01:51:17;18.30;99.90
2054;DHT22;1032;52.542;13.440;2023-07-31T01:53:44;18.30;99.90
2054;DHT22;1032;52.542;13.440;2023-07-31T01:56:11;18.30;99.90
2054;DHT22;1032;52.542;13.440;2023-07-31T01:58:42;18.30;99.90
2054;DHT22;1032;52.542;13.440;2023-07-31T02:01:09;18.40;99.90
2054;DHT22;1032;52.542;13.440;2023-07-31T02:03:36;18.40;99.90
2054;DHT22;1032;52.542;13.440;2023-07-31T02:06:03;18.40;99.90
2054;DHT22;1032;52.542;13.440;2023-07-31T02:08:30;18.40;99.90
2054;DHT22;1032;52.542;13.440;2023-07-31T02:10:57;18.40;99.90
2054;DHT22;1032;52.542;13.440;2023-07-31T02:13:26;18.40;99.90
2054;DHT22;1032;52.542;13.440;2023-07-31T02:15:54;18.40;99.90
2054;DHT22;1032;52.542;13.440;2023-07-31T02:18:22;18.40;99.90
2054;DHT22;1032;52.542;13.440;2023-07-31T02:20:49;18.40;99.90
2054;DHT22;1032;52.542;13.440;2023-07-31T02:23:19;18.40;99.90
2054;DHT22;1032;52.542;13.440;2023-07-31T02:25:46;18.40;99.90
2054;DHT22;1032;52.542;13.440;2023-07-31T02:28:13;18.50;99.90
2054;DHT22;1032;52.542;13.440;2023-07-31T02:30:44;18.40;99.90
2054;DHT22;1032;52.542;13.440;2023-07-31T02:33:14;18.40;99.90
2054;DHT22;1032;52.542;13.440;2023-07-31T02:35:41;18.40;99.90
2054;DHT22;1032;52.542;13.440;2023-07-31T02:38:08;18.40;99.90
2054;DHT22;1032;52.542;13.440;2023-07-31T02:40:35;18.50;99.90
2054;DHT22;1032;52.542;13.440;2023-07-31T02:43:02;18.40;99.90
2054;DHT22;1032;52.542;13.440;2023-07-31T02:45:29;18.40;99.90
2054;DHT22;1032;52.542;13.440;2023-07-31T02:47:56;18.50;99.90
2054;DHT22;1032;52.542;13.440;2023-07-31T02:50:24;18.40;99.90
2054;DHT22;1032;52.542;13.440;2023-07-31T02:52:56;18.40;99.90
2054;DHT22;1032;52.542;13.440;2023-07-31T02:55:23;18.40;99.90
2054;DHT22;1032;52.542;13.440;2023-07-31T02:57:52;18.40;99.90
2054;DHT22;1032;52.542;13.440;2023-07-31T03:00:20;18.40;99.90
2054;DHT22;1032;52.542;13.440;2023-07-31T03:02:47;18.30;99.90
2054;DHT22;1032;52.542;13.440;2023-07-31T03:05:14;18.30;99.90
2054;DHT22;1032;52.542;13.440;2023-07-31T03:07:44;18.30;99.90
2054;DHT22;1032;52.542;13.440;2023-07-31T03:10:14;18.70;99.90
2054;DHT22;1032;52.542;13.440;2023-07-31T03:12:41;18.40;99.90
2054;DHT22;1032;52.542;13.440;2023-07-31T03:15:09;18.40;99.90
2054;DHT22;1032;52.542;13.440;2023-07-31T03:17:38;18.30;99.90
2054;DHT22;1032;52.542;13.440;2023-07-31T03:20:09;18.40;99.90
2054;DHT22;1032;52.542;13.440;2023-07-31T03:22:36;18.40;99.90
2054;DHT22;1032;52.542;13.440;2023-07-31T03:25:05;18.50;99.90
2054;DHT22;1032;52.542;13.440;2023-07-31T03:27:33;18.40;99.90
2054;DHT22;1032;52.542;13.440;2023-07-31T03:30:02;18.30;99.90
2054;DHT22;1032;52.542;13.440;2023-07-31T03:32:39;18.30;99.90
2054;DHT22;1032;52.542;13.440;2023-07-31T03:35:06;18.30;99.90
2054;DHT22;1032;52.542;13.440;2023-07-31T03:37:34;18.50;99.90
2054;DHT22;1032;52.542;13.440;2023-07-31T03:40:01;18.30;99.90
2054;DHT22;1032;52.542;13.440;2023-07-31T03:42:37;18.30;99.90
2054;DHT22;1032;52.542;13.440;2023-07-31T03:45:06;18.30;99.90
2054;DHT22;1032;52.542;13.440;2023-07-31T03:47:33;18.30;99.90
2054;DHT22;1032;52.542;13.440;2023-07-31T03:50:00;18.20;99.90
2054;DHT22;1032;52.542;13.440;2023-07-31T03:52:29;18.50;99.90
2054;DHT22;1032;52.542;13.440;2023-07-31T03:54:56;18.30;99.90
2054;DHT22;1032;52.542;13.440;2023-07-31T03:57:23;18.30;99.90
2054;DHT22;1032;52.542;13.440;2023-07-31T03:59:52;18.30;99.90
2054;DHT22;1032;52.542;13.440;2023-07-31T04:02:19;18.30;99.90
2054;DHT22;1032;52.542;13.440;2023-07-31T04:04:46;18.20;99.90
2054;DHT22;1032;52.542;13.440;2023-07-31T04:07:13;18.30;99.90
2054;DHT22;1032;52.542;13.440;2023-07-31T04:09:39;18.30;99.90
2054;DHT22;1032;52.542;13.440;2023-07-31T04:12:07;18.30;99.90
2054;DHT22;1032;52.542;13.440;2023-07-31T04:14:34;18.40;99.90
2054;DHT22;1032;52.542;13.440;2023-07-31T04:17:02;18.30;99.90
2054;DHT22;1032;52.542;13.440;2023-07-31T04:19:29;18.30;99.90
2054;DHT22;1032;52.542;13.440;2023-07-31T04:21:56;18.30;99.90
2054;DHT22;1032;52.542;13.440;2023-07-31T04:24:23;18.30;99.90
2054;DHT22;1032;52.542;13.440;2023-07-31T04:26:51;18.30;99.90
2054;DHT22;1032;52.542;13.440;2023-07-31T04:29:20;18.30;99.90
2054;DHT22;1032;52.542;13.440;2023-07-31T04:31:49;18.30;99.90
2054;DHT22;1032;52.542;13.440;2023-07-31T04:34:17;18.30;99.90
2054;DHT22;1032;52.542;13.440;2023-07-31T04:36:44;18.40;99.90
2054;DHT22;1032;52.542;13.440;2023-07-31T04:39:11;18.40;99.90
2054;DHT22;1032;52.542;13.440;2023-07-31T04:41:38;18.50;99.90
2054;DHT22;1032;52.542;13.440;2023-07-31T04:44:05;18.40;99.90
2054;DHT22;1032;52.542;13.440;2023-07-31T04:46:32;18.40;99.90
2054;DHT22;1032;52.542;13.440;2023-07-31T04:49:01;18.50;99.90
2054;DHT22;1032;52.542;13.440;2023-07-31T04:51:30;18.40;99.90
2054;DHT22;1032;52.542;13.440;2023-07-31T04:53:57;18.50;99.90
2054;DHT22;1032;52.542;13.440;2023-07-31T04:56:24;18.40;99.90
2054;DHT22;1032;52.542;13.440;2023-07-31T04:58:51;18.50;99.90
2054;DHT22;1032;52.542;13.440;2023-07-31T05:01:17;18.50;99.90
2054;DHT22;1032;52.542;13.440;2023-07-31T05:03:46;18.50;99.90
2054;DHT22;1032;52.542;13.440;2023-07-31T05:06:15;18.50;99.90
2054;DHT22;1032;52.542;13.440;2023-07-31T05:08:49;18.50;99.90
2054;DHT22;1032;52.542;13.440;2023-07-31T05:11:16;18.50;99.90
2054;DHT22;1032;52.542;13.440;2023-07-31T05:13:45;18.50;99.90
2054;DHT22;1032;52.542;13.440;2023-07-31T05:16:12;18.60;99.90
2054;DHT22;1032;52.542;13.440;2023-07-31T05:18:44;18.60;99.90
2054;DHT22;1032;52.542;13.440;2023-07-31T05:21:11;18.70;99.90
2054;DHT22;1032;52.542;13.440;2023-07-31T05:23:38;18.70;99.90
2054;DHT22;1032;52.542;13.440;2023-07-31T05:26:07;18.70;99.90
2054;DHT22;1032;52.542;13.440;2023-07-31T05:28:38;18.80;99.90
2054;DHT22;1032;52.542;13.440;2023-07-31T05:31:05;18.80;99.90
2054;DHT22;1032;52.542;13.440;2023-07-31T05:33:33;18.90;99.90
2054;DHT22;1032;52.542;13.440;2023-07-31T05:36:00;18.90;99.90
2054;DHT22;1032;52.542;13.440;2023-07-31T05:38:27;18.90;99.90
2054;DHT22;1032;52.542;13.440;2023-07-31T05:40:54;18.90;99.90
2054;DHT22;1032;52.542;13.440;2023-07-31T05:43:22;19.00;99.90
2054;DHT22;1032;52.542;13.440;2023-07-31T05:45:50;19.00;99.90
2054;DHT22;1032;52.542;13.440;2023-07-31T05:48:17;19.10;99.90
2054;DHT22;1032;52.542;13.440;2023-07-31T05:50:45;19.10;99.90
2054;DHT22;1032;52.542;13.440;2023-07-31T05:53:12;19.10;99.90
2054;DHT22;1032;52.542;13.440;2023-07-31T05:55:41;19.10;99.90
2054;DHT22;1032;52.542;13.440;2023-07-31T05:58:08;19.00;99.90
2054;DHT22;1032;52.542;13.440;2023-07-31T06:00:36;19.00;99.90
2054;DHT22;1032;52.542;13.440;2023-07-31T06:03:09;19.00;99.90
2054;DHT22;1032;52.542;13.440;2023-07-31T06:05:36;19.10;99.90
2054;DHT22;1032;52.542;13.440;2023-07-31T06:08:04;19.10;99.90
2054;DHT22;1032;52.542;13.440;2023-07-31T06:10:30;19.10;99.90
2054;DHT22;1032;52.542;13.440;2023-07-31T06:12:57;19.10;99.90
2054;DHT22;1032;52.542;13.440;2023-07-31T06:15:27;19.00;99.90
2054;DHT22;1032;52.542;13.440;2023-07-31T06:17:55;19.00;99.90
2054;DHT22;1032;52.542;13.440;2023-07-31T06:20:23;19.20;99.90
2054;DHT22;1032;52.542;13.440;2023-07-31T06:22:50;19.10;99.90
2054;DHT22;1032;52.542;13.440;2023-07-31T06:25:20;19.30;99.90
2054;DHT22;1032;52.542;13.440;2023-07-31T06:27:47;19.40;99.90
2054;DHT22;1032;52.542;13.440;2023-07-31T06:30:18;19.40;99.90
2054;DHT22;1032;52.542;13.440;2023-07-31T06:32:47;19.40;99.90
2054;DHT22;1032;52.542;13.440;2023-07-31T06:35:15;19.40;99.90
2054;DHT22;1032;52.542;13.440;2023-07-31T06:37:42;19.40;99.90
2054;DHT22;1032;52.542;13.440;2023-07-31T06:40:10;19.40;99.90
2054;DHT22;1032;52.542;13.440;2023-07-31T06:42:40;19.30;99.90
2054;DHT22;1032;52.542;13.440;2023-07-31T06:45:10;19.50;99.90
2054;DHT22;1032;52.542;13.440;2023-07-31T06:47:37;19.50;99.90
2054;DHT22;1032;52.542;13.440;2023-07-31T06:50:05;19.60;99.90
2054;DHT22;1032;52.542;13.440;2023-07-31T06:52:33;19.60;99.90
2054;DHT22;1032;52.542;13.440;2023-07-31T06:55:01;19.60;99.90
2054;DHT22;1032;52.542;13.440;2023-07-31T06:57:29;19.50;99.90
2054;DHT22;1032;52.542;13.440;2023-07-31T06:59:56;19.70;99.90
2054;DHT22;1032;52.542;13.440;2023-07-31T07:02:23;19.70;99.90
2054;DHT22;1032;52.542;13.440;2023-07-31T07:04:50;19.70;99.90
2054;DHT22;1032;52.542;13.440;2023-07-31T07:07:18;19.70;99.90
2054;DHT22;1032;52.542;13.440;2023-07-31T07:09:46;19.70;99.90
2054;DHT22;1032;52.542;13.440;2023-07-31T07:12:13;19.70;99.90
2054;DHT22;1032;52.542;13.440;2023-07-31T07:14:40;19.70;99.90
2054;DHT22;1032;52.542;13.440;2023-07-31T07:17:07;19.70;99.90
2054;DHT22;1032;52.542;13.440;2023-07-31T07:19:34;19.60;99.90
2054;DHT22;1032;52.542;13.440;2023-07-31T07:22:01;19.60;99.90
2054;DHT22;1032;52.542;13.440;2023-07-31T07:24:28;19.60;99.90
2054;DHT22;1032;52.542;13.440;2023-07-31T07:26:56;19.80;99.90
2054;DHT22;1032;52.542;13.440;2023-07-31T07:29:23;19.70;99.90
2054;DHT22;1032;52.542;13.440;2023-07-31T07:31:50;19.50;99.90
2054;DHT22;1032;52.542;13.440;2023-07-31T07:34:17;19.60;99.90
2054;DHT22;1032;52.542;13.440;2023-07-31T07:36:46;19.90;99.90
2054;DHT22;1032;52.542;13.440;2023-07-31T07:39:17;20.00;99.90
2054;DHT22;1032;52.542;13.440;2023-07-31T07:41:44;20.00;99.90
2054;DHT22;1032;52.542;13.440;2023-07-31T07:44:15;20.30;99.90
2054;DHT22;1032;52.542;13.440;2023-07-31T07:46:42;20.10;99.90
2054;DHT22;1032;52.542;13.440;2023-07-31T07:49:09;20.20;99.90
2054;DHT22;1032;52.542;13.440;2023-07-31T07:51:36;20.30;99.90
2054;DHT22;1032;52.542;13.440;2023-07-31T07:54:03;20.10;99.90
2054;DHT22;1032;52.542;13.440;2023-07-31T07:56:30;20.40;99.90
2054;DHT22;1032;52.542;13.440;2023-07-31T07:58:57;20.50;99.90
2054;DHT22;1032;52.542;13.440;2023-07-31T08:01:25;20.50;99.90
2054;DHT22;1032;52.542;13.440;2023-07-31T08:03:52;20.40;99.90
2054;DHT22;1032;52.542;13.440;2023-07-31T08:06:19;20.40;99.90
2054;DHT22;1032;52.542;13.440;2023-07-31T08:08:46;20.40;99.90
2054;DHT22;1032;52.542;13.440;2023-07-31T08:11:13;20.40;99.90
2054;DHT22;1032;52.542;13.440;2023-07-31T08:13:40;20.40;99.90
2054;DHT22;1032;52.542;13.440;2023-07-31T08:16:07;20.40;99.90
2054;DHT22;1032;52.542;13.440;2023-07-31T08:18:36;20.40;99.90
2054;DHT22;1032;52.542;13.440;2023-07-31T08:21:03;20.30;99.90
2054;DHT22;1032;52.542;13.440;2023-07-31T08:23:30;19.60;99.90
2054;DHT22;1032;52.542;13.440;2023-07-31T08:25:57;20.20;99.90
2054;DHT22;1032;52.542;13.440;2023-07-31T08:28:25;20.30;99.90
2054;DHT22;1032;52.542;13.440;2023-07-31T08:30:52;20.40;99.90
2054;DHT22;1032;52.542;13.440;2023-07-31T08:33:21;20.40;99.90
2054;DHT22;1032;52.542;13.440;2023-07-31T08:35:52;20.30;99.90
2054;DHT22;1032;52.542;13.440;2023-07-31T08:38:19;20.30;99.90
2054;DHT22;1032;52.542;13.440;2023-07-31T08:40:46;19.80;99.90
2054;DHT22;1032;52.542;13.440;2023-07-31T08:43:13;20.20;99.90
2054;DHT22;1032;52.542;13.440;2023-07-31T08:45:42;20.20;99.90
2054;DHT22;1032;52.542;13.440;2023-07-31T08:48:09;20.90;99.90
2054;DHT22;1032;52.542;13.440;2023-07-31T08:50:40;20.30;99.90
2054;DHT22;1032;52.542;13.440;2023-07-31T08:53:09;20.40;99.90
2054;DHT22;1032;52.542;13.440;2023-07-31T08:55:36;20.50;99.90
2054;DHT22;1032;52.542;13.440;2023-07-31T08:58:04;20.60;99.90
2054;DHT22;1032;52.542;13.440;2023-07-31T09:00:32;20.70;99.90
2054;DHT22;1032;52.542;13.440;2023-07-31T09:03:02;20.80;99.90
2054;DHT22;1032;52.542;13.440;2023-07-31T09:05:30;20.80;99.90
2054;DHT22;1032;52.542;13.440;2023-07-31T09:07:58;20.90;99.90
2054;DHT22;1032;52.542;13.440;2023-07-31T09:10:26;21.00;99.90
2054;DHT22;1032;52.542;13.440;2023-07-31T09:12:53;21.00;99.90
2054;DHT22;1032;52.542;13.440;2023-07-31T09:15:21;21.10;99.90
2054;DHT22;1032;52.542;13.440;2023-07-31T09:17:58;21.20;99.90
2054;DHT22;1032;52.542;13.440;2023-07-31T09:20:26;21.20;99.90
2054;DHT22;1032;52.542;13.440;2023-07-31T09:22:55;21.10;99.90
2054;DHT22;1032;52.542;13.440;2023-07-31T09:25:23;21.20;99.90
2054;DHT22;1032;52.542;13.440;2023-07-31T09:27:54;21.20;99.90
2054;DHT22;1032;52.542;13.440;2023-07-31T09:30:22;21.20;99.90
2054;DHT22;1032;52.542;13.440;2023-07-31T09:32:50;21.30;99.90
2054;DHT22;1032;52.542;13.440;2023-07-31T09:35:21;21.30;99.90
2054;DHT22;1032;52.542;13.440;2023-07-31T09:37:49;21.30;99.90
2054;DHT22;1032;52.542;13.440;2023-07-31T09:40:27;21.20;99.90
2054;DHT22;1032;52.542;13.440;2023-07-31T09:42:58;21.10;99.90
2054;DHT22;1032;52.542;13.440;2023-07-31T09:45:26;20.90;99.90
2054;DHT22;1032;52.542;13.440;2023-07-31T09:47:53;20.80;99.90
2054;DHT22;1032;52.542;13.440;2023-07-31T09:50:21;20.80;99.90
2054;DHT22;1032;52.542;13.440;2023-07-31T09:52:49;20.70;99.90
2054;DHT22;1032;52.542;13.440;2023-07-31T09:55:16;20.70;99.90
2054;DHT22;1032;52.542;13.440;2023-07-31T09:57:45;20.80;99.90
2054;DHT22;1032;52.542;13.440;2023-07-31T10:00:16;20.90;99.90
2054;DHT22;1032;52.542;13.440;2023-07-31T10:02:46;21.00;99.90
2054;DHT22;1032;52.542;13.440;2023-07-31T10:05:14;20.90;99.90
2054;DHT22;1032;52.542;13.440;2023-07-31T10:07:50;20.90;99.90
2054;DHT22;1032;52.542;13.440;2023-07-31T10:10:20;20.90;99.90
2054;DHT22;1032;52.542;13.440;2023-07-31T10:12:49;20.80;99.90
2054;DHT22;1032;52.542;13.440;2023-07-31T10:15:18;20.90;99.90
2054;DHT22;1032;52.542;13.440;2023-07-31T10:17:48;21.10;99.90
2054;DHT22;1032;52.542;13.440;2023-07-31T10:20:16;21.30;99.90
2054;DHT22;1032;52.542;13.440;2023-07-31T10:22:44;21.40;99.90
2054;DHT22;1032;52.542;13.440;2023-07-31T10:25:13;21.60;99.90
2054;DHT22;1032;52.542;13.440;2023-07-31T10:27:42;21.40;99.90
2054;DHT22;1032;52.542;13.440;2023-07-31T10:30:11;21.30;99.90
2054;DHT22;1032;52.542;13.440;2023-07-31T10:32:41;21.20;99.90
2054;DHT22;1032;52.542;13.440;2023-07-31T10:35:09;21.20;99.90
2054;DHT22;1032;52.542;13.440;2023-07-31T10:37:38;21.20;99.90
2054;DHT22;1032;52.542;13.440;2023-07-31T10:40:07;21.20;99.90
2054;DHT22;1032;52.542;13.440;2023-07-31T10:42:37;21.60;99.90
2054;DHT22;1032;52.542;13.440;2023-07-31T10:45:07;21.40;99.90
2054;DHT22;1032;52.542;13.440;2023-07-31T10:47:42;21.30;99.90
2054;DHT22;1032;52.542;13.440;2023-07-31T10:50:17;21.30;99.90
2054;DHT22;1032;52.542;13.440;2023-07-31T10:52:50;21.40;99.90
2054;DHT22;1032;52.542;13.440;2023-07-31T10:55:31;21.60;99.90
2054;DHT22;1032;52.542;13.440;2023-07-31T10:58:06;21.90;99.90
2054;DHT22;1032;52.542;13.440;2023-07-31T11:00:33;22.10;99.90
2054;DHT22;1032;52.542;13.440;2023-07-31T11:03:05;22.40;99.90
2054;DHT22;1032;52.542;13.440;2023-07-31T11:05:45;22.50;99.90
2054;DHT22;1032;52.542;13.440;2023-07-31T11:08:14;22.60;99.90
2054;DHT22;1032;52.542;13.440;2023-07-31T11:10:42;22.80;99.90
2054;DHT22;1032;52.542;13.440;2023-07-31T11:13:09;22.90;99.90
2054;DHT22;1032;52.542;13.440;2023-07-31T11:15:36;23.00;99.90
2054;DHT22;1032;52.542;13.440;2023-07-31T11:18:05;23.00;99.90
2054;DHT22;1032;52.542;13.440;2023-07-31T11:20:37;23.00;99.90
2054;DHT22;1032;52.542;13.440;2023-07-31T11:23:07;22.90;99.90
2054;DHT22;1032;52.542;13.440;2023-07-31T11:25:34;22.80;99.90
2054;DHT22;1032;52.542;13.440;2023-07-31T11:28:05;22.90;99.90
2054;DHT22;1032;52.542;13.440;2023-07-31T11:30:33;23.00;99.90
2054;DHT22;1032;52.542;13.440;2023-07-31T11:33:01;23.00;99.90
2054;DHT22;1032;52.542;13.440;2023-07-31T11:35:32;23.10;99.90
2054;DHT22;1032;52.542;13.440;2023-07-31T11:38:00;23.10;99.90
2054;DHT22;1032;52.542;13.440;2023-07-31T11:40:29;23.10;99.90
2054;DHT22;1032;52.542;13.440;2023-07-31T11:42:57;23.10;99.90
2054;DHT22;1032;52.542;13.440;2023-07-31T11:45:27;23.00;99.90
2054;DHT22;1032;52.542;13.440;2023-07-31T11:47:55;22.90;99.90
2054;DHT22;1032;52.542;13.440;2023-07-31T11:50:23;22.80;99.90
2054;DHT22;1032;52.542;13.440;2023-07-31T11:52:57;22.80;99.90
2054;DHT22;1032;52.542;13.440;2023-07-31T11:55:24;22.90;99.90
2054;DHT22;1032;52.542;13.440;2023-07-31T11:57:53;22.90;99.90
2054;DHT22;1032;52.542;13.440;2023-07-31T12:00:21;22.80;99.90
2054;DHT22;1032;52.542;13.440;2023-07-31T12:02:51;22.80;99.90
2054;DHT22;1032;52.542;13.440;2023-07-31T12:05:19;22.80;99.90
2054;DHT22;1032;52.542;13.440;2023-07-31T12:07:47;22.80;99.90
2054;DHT22;1032;52.542;13.440;2023-07-31T12:10:28;22.90;99.90
2054;DHT22;1032;52.542;13.440;2023-07-31T12:13:03;22.90;99.90
2054;DHT22;1032;52.542;13.440;2023-07-31T12:15:34;23.30;99.90
2054;DHT22;1032;52.542;13.440;2023-07-31T12:18:05;22.80;99.90
2054;DHT22;1032;52.542;13.440;2023-07-31T12:20:32;22.80;99.90
2054;DHT22;1032;52.542;13.440;2023-07-31T12:23:02;22.80;99.90
2054;DHT22;1032;52.542;13.440;2023-07-31T12:25:32;22.70;99.90
2054;DHT22;1032;52.542;13.440;2023-07-31T12:28:06;22.80;99.90
2054;DHT22;1032;52.542;13.440;2023-07-31T12:30:38;22.90;99.90
2054;DHT22;1032;52.542;13.440;2023-07-31T12:33:06;23.10;99.90
2054;DHT22;1032;52.542;13.440;2023-07-31T12:35:42;23.10;99.90
2054;DHT22;1032;52.542;13.440;2023-07-31T12:38:09;23.10;99.90
2054;DHT22;1032;52.542;13.440;2023-07-31T12:40:39;23.10;99.90
2054;DHT22;1032;52.542;13.440;2023-07-31T12:43:06;23.10;99.90
2054;DHT22;1032;52.542;13.440;2023-07-31T12:45:33;23.20;99.90
2054;DHT22;1032;52.542;13.440;2023-07-31T12:48:01;23.30;99.90
2054;DHT22;1032;52.542;13.440;2023-07-31T12:50:28;23.50;99.90
2054;DHT22;1032;52.542;13.440;2023-07-31T12:52:55;23.60;99.90
2054;DHT22;1032;52.542;13.440;2023-07-31T12:55:25;23.80;99.80
2054;DHT22;1032;52.542;13.440;2023-07-31T12:57:53;23.90;99.60
2054;DHT22;1032;52.542;13.440;2023-07-31T13:00:20;24.00;99.40
2054;DHT22;1032;52.542;13.440;2023-07-31T13:02:47;24.00;99.30
2054;DHT22;1032;52.542;13.440;2023-07-31T13:05:14;24.00;99.20
2054;DHT22;1032;52.542;13.440;2023-07-31T13:07:41;23.90;99.10
2054;DHT22;1032;52.542;13.440;2023-07-31T13:10:09;23.80;99.00
2054;DHT22;1032;52.542;13.440;2023-07-31T13:12:38;23.70;99.00
2054;DHT22;1032;52.542;13.440;2023-07-31T13:15:07;23.60;99.30
2054;DHT22;1032;52.542;13.440;2023-07-31T13:17:35;23.40;99.80
2054;DHT22;1032;52.542;13.440;2023-07-31T13:20:02;23.40;99.90
2054;DHT22;1032;52.542;13.440;2023-07-31T13:22:30;23.30;99.90
2054;DHT22;1032;52.542;13.440;2023-07-31T13:24:57;23.40;99.90
2054;DHT22;1032;52.542;13.440;2023-07-31T13:27:24;23.50;99.90
2054;DHT22;1032;52.542;13.440;2023-07-31T13:29:52;23.60;99.90
2054;DHT22;1032;52.542;13.440;2023-07-31T13:32:21;23.70;99.80
2054;DHT22;1032;52.542;13.440;2023-07-31T13:34:51;23.90;99.90
2054;DHT22;1032;52.542;13.440;2023-07-31T13:37:18;23.90;99.90
2054;DHT22;1032;52.542;13.440;2023-07-31T13:39:45;23.90;99.90
2054;DHT22;1032;52.542;13.440;2023-07-31T13:42:12;23.90;99.80
2054;DHT22;1032;52.542;13.440;2023-07-31T13:44:39;23.80;99.70
2054;DHT22;1032;52.542;13.440;2023-07-31T13:47:07;23.80;99.60
2054;DHT22;1032;52.542;13.440;2023-07-31T13:49:36;23.80;99.60
2054;DHT22;1032;52.542;13.440;2023-07-31T13:52:04;23.90;99.30
2054;DHT22;1032;52.542;13.440;2023-07-31T13:54:32;24.00;99.30
2054;DHT22;1032;52.542;13.440;2023-07-31T13:56:58;24.10;99.20
2054;DHT22;1032;52.542;13.440;2023-07-31T13:59:25;24.90;99.40
2054;DHT22;1032;52.542;13.440;2023-07-31T14:01:52;24.30;99.00
2054;DHT22;1032;52.542;13.440;2023-07-31T14:04:19;24.30;98.50
2054;DHT22;1032;52.542;13.440;2023-07-31T14:06:48;24.30;98.30
2054;DHT22;1032;52.542;13.440;2023-07-31T14:09:16;24.30;98.20
2054;DHT22;1032;52.542;13.440;2023-07-31T14:11:43;24.30;98.20
2054;DHT22;1032;52.542;13.440;2023-07-31T14:14:10;24.30;98.30
2054;DHT22;1032;52.542;13.440;2023-07-31T14:16:37;24.30;98.30
2054;DHT22;1032;52.542;13.440;2023-07-31T14:19:04;24.20;98.10
2054;DHT22;1032;52.542;13.440;2023-07-31T14:21:33;24.10;98.30
2054;DHT22;1032;52.542;13.440;2023-07-31T14:24:01;24.10;98.00
2054;DHT22;1032;52.542;13.440;2023-07-31T14:26:28;24.10;98.10
2054;DHT22;1032;52.542;13.440;2023-07-31T14:28:55;24.10;98.10
2054;DHT22;1032;52.542;13.440;2023-07-31T14:31:22;24.00;98.50
2054;DHT22;1032;52.542;13.440;2023-07-31T14:33:49;24.00;98.10
2054;DHT22;1032;52.542;13.440;2023-07-31T14:36:16;23.90;98.10
2054;DHT22;1032;52.542;13.440;2023-07-31T14:38:43;23.90;98.10
2054;DHT22;1032;52.542;13.440;2023-07-31T14:41:11;23.90;98.20
2054;DHT22;1032;52.542;13.440;2023-07-31T14:43:39;24.00;98.20
2054;DHT22;1032;52.542;13.440;2023-07-31T14:46:06;24.00;98.20
2054;DHT22;1032;52.542;13.440;2023-07-31T14:48:33;24.00;98.20
2054;DHT22;1032;52.542;13.440;2023-07-31T14:51:00;24.00;98.30
2054;DHT22;1032;52.542;13.440;2023-07-31T14:53:27;24.00;98.20
2054;DHT22;1032;52.542;13.440;2023-07-31T14:55:54;23.90;98.10
2054;DHT22;1032;52.542;13.440;2023-07-31T14:58:22;23.90;98.10
2054;DHT22;1032;52.542;13.440;2023-07-31T15:00:50;23.90;98.30
2054;DHT22;1032;52.542;13.440;2023-07-31T15:03:20;23.90;98.00
2054;DHT22;1032;52.542;13.440;2023-07-31T15:05:47;23.80;97.90
2054;DHT22;1032;52.542;13.440;2023-07-31T15:08:14;23.70;97.80
2054;DHT22;1032;52.542;13.440;2023-07-31T15:10:41;23.70;97.60
2054;DHT22;1032;52.542;13.440;2023-07-31T15:13:08;23.70;97.50
2054;DHT22;1032;52.542;13.440;2023-07-31T15:15:36;23.70;97.50
2054;DHT22;1032;52.542;13.440;2023-07-31T15:18:03;23.60;97.50
2054;DHT22;1032;52.542;13.440;2023-07-31T15:20:30;23.60;97.60
2054;DHT22;1032;52.542;13.440;2023-07-31T15:22:58;23.60;97.60
2054;DHT22;1032;52.542;13.440;2023-07-31T15:25:25;23.50;97.70
2054;DHT22;1032;52.542;13.440;2023-07-31T15:27:52;23.50;97.80
2054;DHT22;1032;52.542;13.440;2023-07-31T15:30:19;23.50;97.90
2054;DHT22;1032;52.542;13.440;2023-07-31T15:32:47;23.70;98.20
2054;DHT22;1032;52.542;13.440;2023-07-31T15:35:15;23.70;98.30
2054;DHT22;1032;52.542;13.440;2023-07-31T15:37:43;23.90;98.20
2054;DHT22;1032;52.542;13.440;2023-07-31T15:40:12;23.80;98.10
2054;DHT22;1032;52.542;13.440;2023-07-31T15:42:39;23.80;98.00
2054;DHT22;1032;52.542;13.440;2023-07-31T15:45:08;23.70;97.90
2054;DHT22;1032;52.542;13.440;2023-07-31T15:47:36;24.00;98.20
2054;DHT22;1032;52.542;13.440;2023-07-31T15:50:05;23.60;98.00
2054;DHT22;1032;52.542;13.440;2023-07-31T15:52:32;23.50;98.00